sensor_id;sensor_type;location;lat;lon;timestamp;P1;durP1;ratioP1;P2;durP2;ratioP2
22425;SDS011;11380;50.822;15.790;2022-09-09T00:02:01;51.47;;;47.20;;
22425;SDS011;11380;50.822;15.790;2022-09-09T00:07:17;51.83;;;47.53;;
22425;SDS011;11380;50.822;15.790;2022-09-09T00:12:36;51.23;;;47.03;;
22425;SDS011;11380;50.822;15.790;2022-09-09T00:23:22;51.40;;;47.20;;
22425;SDS011;11380;50.822;15.790;2022-09-09T00:28:31;51.47;;;47.27;;
22425;SDS011;11380;50.822;15.790;2022-09-09T00:33:38;51.23;;;46.93;;
22425;SDS011;11380;50.822;15.790;2022-09-09T00:38:48;51.47;;;47.27;;
22425;SDS011;11380;50.822;15.790;2022-09-09T00:43:57;51.13;;;46.93;;
22425;SDS011;11380;50.822;15.790;2022-09-09T00:49:12;51.13;;;46.90;;
22425;SDS011;11380;50.822;15.790;2022-09-09T00:59:47;50.90;;;46.70;;
22425;SDS011;11380;50.822;15.790;2022-09-09T01:04:55;50.80;;;46.70;;
22425;SDS011;11380;50.822;15.790;2022-09-09T01:10:11;51.45;;;47.25;;
22425;SDS011;11380;50.822;15.790;2022-09-09T01:15:22;51.50;;;47.20;;
22425;SDS011;11380;50.822;15.790;2022-09-09T01:31:29;50.70;;;46.48;;
22425;SDS011;11380;50.822;15.790;2022-09-09T01:36:43;51.17;;;46.97;;
22425;SDS011;11380;50.822;15.790;2022-09-09T01:41:51;50.50;;;46.40;;
22425;SDS011;11380;50.822;15.790;2022-09-09T01:46:57;50.83;;;46.73;;
22425;SDS011;11380;50.822;15.790;2022-09-09T01:52:03;50.23;;;46.23;;
22425;SDS011;11380;50.822;15.790;2022-09-09T02:07:50;50.63;;;46.47;;
22425;SDS011;11380;50.822;15.790;2022-09-09T02:13:01;52.20;;;47.57;;
22425;SDS011;11380;50.822;15.790;2022-09-09T02:18:09;50.78;;;46.58;;
22425;SDS011;11380;50.822;15.790;2022-09-09T02:23:16;51.00;;;46.80;;
22425;SDS011;11380;50.822;15.790;2022-09-09T02:33:31;50.70;;;46.47;;
22425;SDS011;11380;50.822;15.790;2022-09-09T02:38:40;50.63;;;46.47;;
22425;SDS011;11380;50.822;15.790;2022-09-09T02:43:46;50.83;;;46.73;;
22425;SDS011;11380;50.822;15.790;2022-09-09T02:48:55;50.73;;;46.63;;
22425;SDS011;11380;50.822;15.790;2022-09-09T02:54:23;51.10;;;46.87;;
22425;SDS011;11380;50.822;15.790;2022-09-09T02:59:35;50.83;;;46.80;;
22425;SDS011;11380;50.822;15.790;2022-09-09T03:04:40;51.70;;;47.30;;
22425;SDS011;11380;50.822;15.790;2022-09-09T03:09:47;51.37;;;46.90;;
22425;SDS011;11380;50.822;15.790;2022-09-09T03:14:52;50.57;;;46.47;;
22425;SDS011;11380;50.822;15.790;2022-09-09T03:19:57;51.07;;;46.77;;
22425;SDS011;11380;50.822;15.790;2022-09-09T03:25:03;50.47;;;46.47;;
22425;SDS011;11380;50.822;15.790;2022-09-09T03:30:10;50.43;;;46.43;;
22425;SDS011;11380;50.822;15.790;2022-09-09T03:35:17;50.43;;;46.25;;
22425;SDS011;11380;50.822;15.790;2022-09-09T03:40:22;50.63;;;46.37;;
22425;SDS011;11380;50.822;15.790;2022-09-09T03:45:27;50.13;;;46.13;;
22425;SDS011;11380;50.822;15.790;2022-09-09T03:50:33;50.13;;;46.13;;
22425;SDS011;11380;50.822;15.790;2022-09-09T03:55:38;50.20;;;46.00;;
22425;SDS011;11380;50.822;15.790;2022-09-09T04:00:54;50.33;;;46.00;;
22425;SDS011;11380;50.822;15.790;2022-09-09T04:06:01;51.27;;;46.97;;
22425;SDS011;11380;50.822;15.790;2022-09-09T04:11:09;50.73;;;46.33;;
22425;SDS011;11380;50.822;15.790;2022-09-09T04:16:14;50.00;;;46.03;;
22425;SDS011;11380;50.822;15.790;2022-09-09T04:21:19;50.40;;;46.30;;
22425;SDS011;11380;50.822;15.790;2022-09-09T04:26:25;50.73;;;46.53;;
22425;SDS011;11380;50.822;15.790;2022-09-09T04:31:30;50.97;;;46.77;;
22425;SDS011;11380;50.822;15.790;2022-09-09T04:36:36;50.70;;;46.27;;
22425;SDS011;11380;50.822;15.790;2022-09-09T04:41:43;51.27;;;46.87;;
22425;SDS011;11380;50.822;15.790;2022-09-09T04:46:48;50.20;;;46.20;;
22425;SDS011;11380;50.822;15.790;2022-09-09T04:51:53;50.70;;;46.70;;
22425;SDS011;11380;50.822;15.790;2022-09-09T04:56:59;49.87;;;45.57;;
22425;SDS011;11380;50.822;15.790;2022-09-09T05:02:05;50.87;;;46.77;;
22425;SDS011;11380;50.822;15.790;2022-09-09T05:12:17;49.98;;;46.05;;
22425;SDS011;11380;50.822;15.790;2022-09-09T05:17:23;49.55;;;45.65;;
22425;SDS011;11380;50.822;15.790;2022-09-09T05:22:29;50.00;;;45.90;;
22425;SDS011;11380;50.822;15.790;2022-09-09T05:27:35;50.77;;;46.67;;
22425;SDS011;11380;50.822;15.790;2022-09-09T05:32:41;51.10;;;46.58;;
22425;SDS011;11380;50.822;15.790;2022-09-09T05:37:47;50.47;;;45.97;;
22425;SDS011;11380;50.822;15.790;2022-09-09T05:42:54;49.77;;;45.77;;
22425;SDS011;11380;50.822;15.790;2022-09-09T05:47:59;50.50;;;46.40;;
22425;SDS011;11380;50.822;15.790;2022-09-09T05:53:05;51.10;;;46.80;;
22425;SDS011;11380;50.822;15.790;2022-09-09T05:58:13;50.77;;;46.63;;
22425;SDS011;11380;50.822;15.790;2022-09-09T06:03:19;51.47;;;47.17;;
22425;SDS011;11380;50.822;15.790;2022-09-09T06:08:26;51.30;;;46.90;;
22425;SDS011;11380;50.822;15.790;2022-09-09T06:13:32;51.00;;;46.70;;
22425;SDS011;11380;50.822;15.790;2022-09-09T06:18:37;51.53;;;46.77;;
22425;SDS011;11380;50.822;15.790;2022-09-09T06:23:46;51.27;;;46.97;;
22425;SDS011;11380;50.822;15.790;2022-09-09T06:28:53;51.73;;;47.23;;
22425;SDS011;11380;50.822;15.790;2022-09-09T06:34:02;52.00;;;47.57;;
22425;SDS011;11380;50.822;15.790;2022-09-09T06:39:09;51.90;;;47.50;;
22425;SDS011;11380;50.822;15.790;2022-09-09T06:44:16;51.87;;;47.40;;
22425;SDS011;11380;50.822;15.790;2022-09-09T06:49:21;52.67;;;48.07;;
22425;SDS011;11380;50.822;15.790;2022-09-09T06:54:26;52.40;;;47.97;;
22425;SDS011;11380;50.822;15.790;2022-09-09T06:59:32;52.97;;;48.03;;
22425;SDS011;11380;50.822;15.790;2022-09-09T07:04:38;52.33;;;47.63;;
22425;SDS011;11380;50.822;15.790;2022-09-09T07:09:43;52.83;;;48.23;;
22425;SDS011;11380;50.822;15.790;2022-09-09T07:14:48;52.70;;;48.00;;
22425;SDS011;11380;50.822;15.790;2022-09-09T07:19:53;52.83;;;48.13;;
22425;SDS011;11380;50.822;15.790;2022-09-09T07:25:00;52.98;;;48.30;;
22425;SDS011;11380;50.822;15.790;2022-09-09T07:30:06;52.40;;;47.70;;
22425;SDS011;11380;50.822;15.790;2022-09-09T07:35:12;53.47;;;48.73;;
22425;SDS011;11380;50.822;15.790;2022-09-09T07:40:18;53.13;;;48.45;;
22425;SDS011;11380;50.822;15.790;2022-09-09T07:45:25;54.67;;;49.55;;
22425;SDS011;11380;50.822;15.790;2022-09-09T07:50:32;54.53;;;49.30;;
22425;SDS011;11380;50.822;15.790;2022-09-09T07:55:37;55.38;;;50.28;;
22425;SDS011;11380;50.822;15.790;2022-09-09T08:00:44;55.52;;;50.30;;
22425;SDS011;11380;50.822;15.790;2022-09-09T08:05:49;53.93;;;48.93;;
22425;SDS011;11380;50.822;15.790;2022-09-09T08:11:30;54.07;;;49.20;;
22425;SDS011;11380;50.822;15.790;2022-09-09T08:16:15;56.07;;;50.47;;
22425;SDS011;11380;50.822;15.790;2022-09-09T08:21:22;54.33;;;49.33;;
22425;SDS011;11380;50.822;15.790;2022-09-09T08:26:36;56.13;;;50.83;;
22425;SDS011;11380;50.822;15.790;2022-09-09T08:31:44;54.57;;;49.60;;
22425;SDS011;11380;50.822;15.790;2022-09-09T08:36:52;53.98;;;49.18;;
22425;SDS011;11380;50.822;15.790;2022-09-09T08:47:21;53.77;;;48.93;;
22425;SDS011;11380;50.822;15.790;2022-09-09T08:52:39;53.87;;;49.07;;
22425;SDS011;11380;50.822;15.790;2022-09-09T08:58:06;53.95;;;49.05;;
22425;SDS011;11380;50.822;15.790;2022-09-09T09:03:22;54.37;;;49.37;;
22425;SDS011;11380;50.822;15.790;2022-09-09T09:08:36;54.23;;;49.33;;
22425;SDS011;11380;50.822;15.790;2022-09-09T09:14:01;54.20;;;49.30;;
22425;SDS011;11380;50.822;15.790;2022-09-09T09:19:20;54.40;;;49.33;;
22425;SDS011;11380;50.822;15.790;2022-09-09T09:29:49;53.87;;;48.97;;
22425;SDS011;11380;50.822;15.790;2022-09-09T09:34:58;53.87;;;48.97;;
22425;SDS011;11380;50.822;15.790;2022-09-09T09:40:09;54.07;;;49.17;;
22425;SDS011;11380;50.822;15.790;2022-09-09T09:50:51;54.93;;;49.83;;
22425;SDS011;11380;50.822;15.790;2022-09-09T09:56:01;54.37;;;49.37;;
22425;SDS011;11380;50.822;15.790;2022-09-09T10:01:18;54.93;;;49.83;;
22425;SDS011;11380;50.822;15.790;2022-09-09T10:06:15;54.80;;;49.70;;
22425;SDS011;11380;50.822;15.790;2022-09-09T10:11:24;55.10;;;49.90;;
22425;SDS011;11380;50.822;15.790;2022-09-09T10:16:46;55.27;;;50.07;;
22425;SDS011;11380;50.822;15.790;2022-09-09T10:59:33;55.97;;;50.43;;
22425;SDS011;11380;50.822;15.790;2022-09-09T11:04:40;55.98;;;50.65;;
22425;SDS011;11380;50.822;15.790;2022-09-09T11:09:49;55.65;;;50.35;;
22425;SDS011;11380;50.822;15.790;2022-09-09T11:15:06;56.13;;;50.63;;
22425;SDS011;11380;50.822;15.790;2022-09-09T11:20:13;55.83;;;50.53;;
22425;SDS011;11380;50.822;15.790;2022-09-09T11:25:21;56.07;;;50.80;;
22425;SDS011;11380;50.822;15.790;2022-09-09T11:30:32;56.07;;;50.77;;
22425;SDS011;11380;50.822;15.790;2022-09-09T11:35:52;56.40;;;51.10;;
22425;SDS011;11380;50.822;15.790;2022-09-09T11:41:14;55.90;;;50.63;;
22425;SDS011;11380;50.822;15.790;2022-09-09T11:46:22;55.63;;;50.28;;
22425;SDS011;11380;50.822;15.790;2022-09-09T11:51:32;56.30;;;50.90;;
22425;SDS011;11380;50.822;15.790;2022-09-09T11:56:42;56.40;;;51.00;;
22425;SDS011;11380;50.822;15.790;2022-09-09T12:01:54;56.03;;;50.73;;
22425;SDS011;11380;50.822;15.790;2022-09-09T12:12:29;56.60;;;50.83;;
22425;SDS011;11380;50.822;15.790;2022-09-09T12:17:45;56.73;;;51.37;;
22425;SDS011;11380;50.822;15.790;2022-09-09T12:34:02;55.70;;;50.47;;
22425;SDS011;11380;50.822;15.790;2022-09-09T12:39:17;55.95;;;50.67;;
22425;SDS011;11380;50.822;15.790;2022-09-09T12:44:24;55.50;;;50.20;;
22425;SDS011;11380;50.822;15.790;2022-09-09T12:49:37;55.90;;;50.50;;
22425;SDS011;11380;50.822;15.790;2022-09-09T12:54:45;56.43;;;51.07;;
22425;SDS011;11380;50.822;15.790;2022-09-09T12:59:51;55.50;;;50.30;;
22425;SDS011;11380;50.822;15.790;2022-09-09T13:05:05;55.30;;;50.10;;
22425;SDS011;11380;50.822;15.790;2022-09-09T13:10:25;55.37;;;50.07;;
22425;SDS011;11380;50.822;15.790;2022-09-09T13:15:32;55.60;;;50.20;;
22425;SDS011;11380;50.822;15.790;2022-09-09T13:20:37;55.10;;;49.93;;
22425;SDS011;11380;50.822;15.790;2022-09-09T13:31:01;55.63;;;50.33;;
22425;SDS011;11380;50.822;15.790;2022-09-09T13:36:09;55.53;;;50.03;;
22425;SDS011;11380;50.822;15.790;2022-09-09T13:41:25;58.73;;;52.62;;
22425;SDS011;11380;50.822;15.790;2022-09-09T13:46:34;55.60;;;50.37;;
22425;SDS011;11380;50.822;15.790;2022-09-09T13:51:49;55.93;;;50.63;;
22425;SDS011;11380;50.822;15.790;2022-09-09T13:56:54;54.97;;;49.87;;
22425;SDS011;11380;50.822;15.790;2022-09-09T14:02:00;55.53;;;50.37;;
22425;SDS011;11380;50.822;15.790;2022-09-09T14:07:08;55.03;;;49.83;;
22425;SDS011;11380;50.822;15.790;2022-09-09T14:12:15;55.33;;;50.13;;
22425;SDS011;11380;50.822;15.790;2022-09-09T14:17:22;55.55;;;50.35;;
22425;SDS011;11380;50.822;15.790;2022-09-09T14:22:28;55.12;;;49.95;;
22425;SDS011;11380;50.822;15.790;2022-09-09T14:27:34;54.88;;;49.77;;
22425;SDS011;11380;50.822;15.790;2022-09-09T14:32:39;55.07;;;49.87;;
22425;SDS011;11380;50.822;15.790;2022-09-09T14:37:44;54.77;;;49.67;;
22425;SDS011;11380;50.822;15.790;2022-09-09T14:42:50;54.80;;;49.70;;
22425;SDS011;11380;50.822;15.790;2022-09-09T14:47:57;54.40;;;49.40;;
22425;SDS011;11380;50.822;15.790;2022-09-09T14:58:08;54.98;;;49.80;;
22425;SDS011;11380;50.822;15.790;2022-09-09T15:03:13;54.47;;;49.47;;
22425;SDS011;11380;50.822;15.790;2022-09-09T15:08:18;54.67;;;49.67;;
22425;SDS011;11380;50.822;15.790;2022-09-09T15:13:23;55.53;;;50.33;;
22425;SDS011;11380;50.822;15.790;2022-09-09T15:18:30;54.73;;;49.57;;
22425;SDS011;11380;50.822;15.790;2022-09-09T15:28:42;54.80;;;49.60;;
22425;SDS011;11380;50.822;15.790;2022-09-09T15:33:50;55.63;;;50.40;;
22425;SDS011;11380;50.822;15.790;2022-09-09T15:38:58;55.13;;;50.10;;
22425;SDS011;11380;50.822;15.790;2022-09-09T15:44:04;55.83;;;50.53;;
22425;SDS011;11380;50.822;15.790;2022-09-09T15:49:14;56.35;;;51.05;;
22425;SDS011;11380;50.822;15.790;2022-09-09T15:54:26;56.47;;;51.27;;
22425;SDS011;11380;50.822;15.790;2022-09-09T16:32:57;54.70;;;49.43;;
22425;SDS011;11380;50.822;15.790;2022-09-09T16:38:03;55.38;;;50.20;;
22425;SDS011;11380;50.822;15.790;2022-09-09T16:48:15;54.53;;;49.67;;
22425;SDS011;11380;50.822;15.790;2022-09-09T16:53:20;54.60;;;49.70;;
22425;SDS011;11380;50.822;15.790;2022-09-09T16:58:26;54.97;;;49.97;;
22425;SDS011;11380;50.822;15.790;2022-09-09T17:03:32;54.85;;;49.75;;
22425;SDS011;11380;50.822;15.790;2022-09-09T17:08:37;54.60;;;49.70;;
22425;SDS011;11380;50.822;15.790;2022-09-09T17:13:46;54.67;;;49.70;;
22425;SDS011;11380;50.822;15.790;2022-09-09T17:18:53;54.47;;;49.67;;
22425;SDS011;11380;50.822;15.790;2022-09-09T17:24:00;54.90;;;49.97;;
22425;SDS011;11380;50.822;15.790;2022-09-09T17:29:06;55.92;;;50.92;;
22425;SDS011;11380;50.822;15.790;2022-09-09T17:34:12;56.88;;;51.48;;
22425;SDS011;11380;50.822;15.790;2022-09-09T17:39:18;58.13;;;52.62;;
22425;SDS011;11380;50.822;15.790;2022-09-09T17:44:24;58.80;;;53.23;;
22425;SDS011;11380;50.822;15.790;2022-09-09T17:49:30;56.73;;;51.47;;
22425;SDS011;11380;50.822;15.790;2022-09-09T17:54:36;55.92;;;50.70;;
22425;SDS011;11380;50.822;15.790;2022-09-09T17:59:42;54.20;;;49.30;;
22425;SDS011;11380;50.822;15.790;2022-09-09T18:04:48;54.38;;;49.50;;
22425;SDS011;11380;50.822;15.790;2022-09-09T18:09:53;53.40;;;48.77;;
22425;SDS011;11380;50.822;15.790;2022-09-09T18:14:59;54.20;;;49.37;;
22425;SDS011;11380;50.822;15.790;2022-09-09T18:20:06;54.47;;;49.67;;
22425;SDS011;11380;50.822;15.790;2022-09-09T18:25:15;53.90;;;49.14;;
22425;SDS011;11380;50.822;15.790;2022-09-09T18:30:21;54.23;;;49.10;;
22425;SDS011;11380;50.822;15.790;2022-09-09T18:35:26;54.00;;;49.20;;
22425;SDS011;11380;50.822;15.790;2022-09-09T18:40:32;54.43;;;49.43;;
22425;SDS011;11380;50.822;15.790;2022-09-09T18:45:39;54.33;;;49.53;;
22425;SDS011;11380;50.822;15.790;2022-09-09T18:50:45;55.43;;;50.52;;
22425;SDS011;11380;50.822;15.790;2022-09-09T19:00:58;55.25;;;49.98;;
22425;SDS011;11380;50.822;15.790;2022-09-09T19:06:06;54.60;;;49.80;;
22425;SDS011;11380;50.822;15.790;2022-09-09T19:11:13;55.67;;;50.70;;
22425;SDS011;11380;50.822;15.790;2022-09-09T19:16:24;55.33;;;50.53;;
22425;SDS011;11380;50.822;15.790;2022-09-09T19:21:33;55.07;;;50.07;;
22425;SDS011;11380;50.822;15.790;2022-09-09T19:26:43;54.27;;;49.48;;
22425;SDS011;11380;50.822;15.790;2022-09-09T19:31:52;53.67;;;48.73;;
22425;SDS011;11380;50.822;15.790;2022-09-09T19:37:01;54.90;;;49.90;;
22425;SDS011;11380;50.822;15.790;2022-09-09T19:42:07;54.27;;;49.50;;
22425;SDS011;11380;50.822;15.790;2022-09-09T19:47:12;54.17;;;49.43;;
22425;SDS011;11380;50.822;15.790;2022-09-09T19:52:19;54.03;;;49.23;;
22425;SDS011;11380;50.822;15.790;2022-09-09T19:57:26;54.03;;;49.37;;
22425;SDS011;11380;50.822;15.790;2022-09-09T20:02:33;54.70;;;49.80;;
22425;SDS011;11380;50.822;15.790;2022-09-09T20:07:40;54.10;;;49.30;;
22425;SDS011;11380;50.822;15.790;2022-09-09T20:12:45;53.87;;;49.17;;
22425;SDS011;11380;50.822;15.790;2022-09-09T20:17:50;54.40;;;49.60;;
22425;SDS011;11380;50.822;15.790;2022-09-09T20:22:55;53.78;;;49.05;;
22425;SDS011;11380;50.822;15.790;2022-09-09T20:28:02;54.63;;;49.83;;
22425;SDS011;11380;50.822;15.790;2022-09-09T20:33:08;55.00;;;50.07;;
22425;SDS011;11380;50.822;15.790;2022-09-09T20:38:14;54.37;;;49.47;;
22425;SDS011;11380;50.822;15.790;2022-09-09T20:43:20;54.10;;;49.15;;
22425;SDS011;11380;50.822;15.790;2022-09-09T20:48:25;53.57;;;48.90;;
22425;SDS011;11380;50.822;15.790;2022-09-09T20:53:31;53.90;;;49.23;;
22425;SDS011;11380;50.822;15.790;2022-09-09T20:58:37;52.80;;;48.20;;
22425;SDS011;11380;50.822;15.790;2022-09-09T21:03:43;54.05;;;49.25;;
22425;SDS011;11380;50.822;15.790;2022-09-09T21:08:49;54.67;;;49.93;;
22425;SDS011;11380;50.822;15.790;2022-09-09T21:13:54;53.60;;;48.93;;
22425;SDS011;11380;50.822;15.790;2022-09-09T21:19:01;55.13;;;50.23;;
22425;SDS011;11380;50.822;15.790;2022-09-09T21:24:07;54.90;;;49.90;;
22425;SDS011;11380;50.822;15.790;2022-09-09T21:29:13;55.90;;;50.93;;
22425;SDS011;11380;50.822;15.790;2022-09-09T21:34:18;55.83;;;50.80;;
22425;SDS011;11380;50.822;15.790;2022-09-09T21:39:24;55.90;;;50.98;;
22425;SDS011;11380;50.822;15.790;2022-09-09T21:44:29;56.13;;;51.13;;
22425;SDS011;11380;50.822;15.790;2022-09-09T21:49:34;56.53;;;51.17;;
22425;SDS011;11380;50.822;15.790;2022-09-09T21:54:39;54.87;;;50.07;;
22425;SDS011;11380;50.822;15.790;2022-09-09T21:59:47;54.53;;;49.80;;
22425;SDS011;11380;50.822;15.790;2022-09-09T22:04:52;55.53;;;50.53;;
22425;SDS011;11380;50.822;15.790;2022-09-09T22:09:57;54.67;;;49.67;;
22425;SDS011;11380;50.822;15.790;2022-09-09T22:15:04;54.57;;;49.60;;
22425;SDS011;11380;50.822;15.790;2022-09-09T22:20:11;54.60;;;49.73;;
22425;SDS011;11380;50.822;15.790;2022-09-09T22:25:17;54.20;;;49.40;;
22425;SDS011;11380;50.822;15.790;2022-09-09T22:30:22;54.43;;;49.60;;
22425;SDS011;11380;50.822;15.790;2022-09-09T22:35:27;53.43;;;48.63;;
22425;SDS011;11380;50.822;15.790;2022-09-09T22:40:36;53.07;;;48.53;;
22425;SDS011;11380;50.822;15.790;2022-09-09T22:45:43;53.77;;;48.97;;
22425;SDS011;11380;50.822;15.790;2022-09-09T22:50:49;52.47;;;47.97;;
22425;SDS011;11380;50.822;15.790;2022-09-09T22:55:55;52.62;;;47.93;;
22425;SDS011;11380;50.822;15.790;2022-09-09T23:01:09;52.70;;;47.90;;
22425;SDS011;11380;50.822;15.790;2022-09-09T23:06:21;52.37;;;47.97;;
22425;SDS011;11380;50.822;15.790;2022-09-09T23:11:28;52.07;;;47.67;;
22425;SDS011;11380;50.822;15.790;2022-09-09T23:16:39;51.97;;;47.57;;
22425;SDS011;11380;50.822;15.790;2022-09-09T23:21:46;52.00;;;47.50;;
22425;SDS011;11380;50.822;15.790;2022-09-09T23:26:52;52.03;;;47.63;;
22425;SDS011;11380;50.822;15.790;2022-09-09T23:31:57;51.90;;;47.53;;
22425;SDS011;11380;50.822;15.790;2022-09-09T23:37:02;51.80;;;47.33;;
22425;SDS011;11380;50.822;15.790;2022-09-09T23:42:09;51.33;;;46.43;;
22425;SDS011;11380;50.822;15.790;2022-09-09T23:47:15;51.15;;;46.85;;
22425;SDS011;11380;50.822;15.790;2022-09-09T23:52:20;51.47;;;47.07;;
22425;SDS011;11380;50.822;15.790;2022-09-09T23:57:26;50.87;;;46.47;;
